createdAt,value
2022-10-26T00:00:22.456Z,101189.84
2022-10-26T00:05:25.156Z,101140.94
2022-10-26T00:10:29.537Z,101181.28
2022-10-26T00:15:35.509Z,101176.63
2022-10-26T00:20:39.746Z,101172.78
2022-10-26T00:25:42.320Z,101169.72
2022-10-26T00:30:46.159Z,101177.78
2022-10-26T00:35:49.827Z,101174.06
2022-10-26T00:40:52.427Z,101171.53
2022-10-26T00:45:59.391Z,101171.75
2022-10-26T00:51:06.923Z,101161.31
2022-10-26T00:56:09.551Z,101158.56
2022-10-26T01:01:13.590Z,101147.84
2022-10-26T01:06:16.726Z,101153.88
2022-10-26T01:11:19.507Z,101157.28
2022-10-26T01:16:46.868Z,101143.03
2022-10-26T01:28:55.159Z,101139.00
2022-10-26T01:34:03.959Z,101130.16
2022-10-26T01:39:14.636Z,101123.06
2022-10-26T01:44:22.513Z,101116.16
2022-10-26T01:49:29.662Z,101121.56
2022-10-26T01:54:32.346Z,101125.91
2022-10-26T02:00:04.112Z,101120.41
2022-10-26T02:05:24.629Z,101114.13
2022-10-26T02:10:38.820Z,101108.81
2022-10-26T02:15:50.165Z,101097.88
2022-10-26T02:20:58.496Z,101103.69
2022-10-26T02:26:02.694Z,101101.66
2022-10-26T02:31:07.849Z,101089.25
2022-10-26T02:36:16.505Z,101086.25
2022-10-26T02:41:21.216Z,101083.25
2022-10-26T02:46:27.018Z,101072.50
2022-10-26T02:51:37.844Z,101068.88
2022-10-26T02:56:55.098Z,101058.25
2022-10-26T03:01:58.688Z,101064.09
2022-10-26T03:07:02.910Z,101039.88
2022-10-26T03:12:06.072Z,101055.25
2022-10-26T03:17:09.358Z,101046.13
2022-10-26T03:22:13.229Z,101050.22
2022-10-26T03:27:16.178Z,101047.88
2022-10-26T03:32:18.721Z,101053.69
2022-10-26T03:37:22.562Z,101051.03
2022-10-26T03:42:25.213Z,101051.66
2022-10-26T03:47:27.920Z,101047.81
2022-10-26T03:52:32.140Z,101045.75
2022-10-26T03:57:34.692Z,101049.28
2022-10-26T04:02:37.248Z,101053.38
2022-10-26T04:07:41.322Z,101049.81
2022-10-26T04:12:43.864Z,101049.56
2022-10-26T04:17:47.264Z,101049.56
2022-10-26T04:22:58.060Z,101048.97
2022-10-26T04:28:01.076Z,101050.22
2022-10-26T04:33:03.710Z,101052.34
2022-10-26T04:38:08.409Z,101046.66
2022-10-26T04:43:11.742Z,101044.72
2022-10-26T04:48:15.587Z,101045.34
2022-10-26T04:53:19.464Z,101041.13
2022-10-26T04:58:22.113Z,101004.19
2022-10-26T05:03:24.652Z,101053.38
2022-10-26T05:08:30.279Z,101039.63
2022-10-26T05:13:33.347Z,101042.66
2022-10-26T05:18:37.055Z,101047.63
2022-10-26T05:23:41.266Z,101041.94
2022-10-26T05:28:43.764Z,101038.66
2022-10-26T05:33:50.159Z,101039.38
2022-10-26T05:38:54.056Z,101029.09
2022-10-26T05:43:56.579Z,101036.97
2022-10-26T05:48:59.170Z,101035.88
2022-10-26T05:54:03.066Z,101036.16
2022-10-26T05:59:11.264Z,101038.28
2022-10-26T06:04:35.905Z,101044.34
2022-10-26T06:09:41.556Z,101056.13
2022-10-26T06:14:44.642Z,101054.66
2022-10-26T06:20:00.303Z,101058.03
2022-10-26T06:25:17.348Z,101057.31
2022-10-26T06:30:23.140Z,101054.66
2022-10-26T06:35:36.530Z,101054.78
2022-10-26T06:40:43.402Z,101061.91
2022-10-26T06:45:50.235Z,101061.91
2022-10-26T06:50:54.301Z,101063.63
2022-10-26T06:55:59.993Z,101067.59
2022-10-26T07:01:03.049Z,101068.31
2022-10-26T07:06:06.180Z,101077.66
2022-10-26T07:11:10.139Z,101076.09
2022-10-26T07:16:12.663Z,101074.78
2022-10-26T07:21:15.184Z,101081.56
2022-10-26T07:26:19.065Z,101091.25
2022-10-26T07:31:21.692Z,101066.44
2022-10-26T07:36:24.376Z,101103.03
2022-10-26T07:41:28.217Z,101103.13
2022-10-26T07:46:30.756Z,101095.84
2022-10-26T07:51:33.324Z,101092.81
2022-10-26T07:56:37.616Z,101093.44
2022-10-26T08:01:40.191Z,101098.75
2022-10-26T08:06:42.804Z,101093.53
2022-10-26T08:11:46.651Z,101091.69
2022-10-26T08:16:52.245Z,101106.94
2022-10-26T08:21:54.785Z,101121.97
2022-10-26T08:26:58.654Z,101122.19
2022-10-26T08:32:01.266Z,101136.47
2022-10-26T08:37:03.840Z,101143.34
2022-10-26T08:42:14.766Z,101132.38
2022-10-26T08:47:21.682Z,101147.78
2022-10-26T08:52:29.983Z,101153.09
2022-10-26T08:57:39.083Z,101169.66
2022-10-26T09:02:42.049Z,101166.50
2022-10-26T09:07:55.768Z,101177.41
2022-10-26T09:13:06.405Z,101176.78
2022-10-26T09:18:24.531Z,101171.88
2022-10-26T09:23:44.531Z,101183.47
2022-10-26T09:28:49.607Z,101182.69
2022-10-26T09:33:54.014Z,101198.34
2022-10-26T09:39:03.544Z,101203.72
2022-10-26T09:44:18.800Z,101211.09
2022-10-26T09:49:30.239Z,101219.38
2022-10-26T09:54:32.767Z,101219.94
2022-10-26T09:59:41.078Z,101213.03
2022-10-26T10:04:47.745Z,101228.28
2022-10-26T10:10:08.093Z,101222.78
2022-10-26T10:15:20.563Z,101238.34
2022-10-26T10:20:27.064Z,101248.47
2022-10-26T10:25:36.318Z,101249.16
2022-10-26T10:30:53.656Z,101255.63
2022-10-26T10:35:56.234Z,101259.88
2022-10-26T10:41:02.448Z,101259.81
2022-10-26T10:46:06.486Z,101279.84
2022-10-26T10:51:12.849Z,101257.28
2022-10-26T10:56:28.406Z,101287.63
2022-10-26T11:01:39.473Z,101201.72
2022-10-26T11:06:43.492Z,101293.75
2022-10-26T11:11:50.018Z,101293.34
2022-10-26T11:16:59.772Z,101296.84
2022-10-26T11:22:05.825Z,101299.41
2022-10-26T11:27:15.686Z,101305.34
2022-10-26T11:32:23.639Z,101312.13
2022-10-26T11:37:33.486Z,101310.44
2022-10-26T11:42:42.342Z,101322.81
2022-10-26T11:47:52.529Z,101313.16
2022-10-26T11:52:59.401Z,101322.75
2022-10-26T11:58:03.788Z,101314.97
2022-10-26T12:03:14.322Z,101320.69
2022-10-26T12:08:23.122Z,101319.94
2022-10-26T12:13:31.779Z,101328.72
2022-10-26T12:18:54.923Z,101349.19
2022-10-26T12:24:00.309Z,101342.84
2022-10-26T12:29:32.669Z,101349.59
2022-10-26T12:35:24.887Z,101355.66
2022-10-26T12:40:45.881Z,101367.13
2022-10-26T12:46:41.857Z,101374.34
2022-10-26T12:51:45.934Z,101371.78
2022-10-26T12:56:52.579Z,101374.72
2022-10-26T13:02:20.266Z,101375.53
2022-10-26T13:07:26.701Z,101380.94
2022-10-26T13:12:36.817Z,101383.31
2022-10-26T13:17:40.140Z,101381.31
2022-10-26T13:22:49.176Z,101376.78
2022-10-26T13:28:01.252Z,101385.94
2022-10-26T13:33:04.625Z,101398.50
2022-10-26T13:38:12.253Z,101399.63
2022-10-26T13:43:20.829Z,101409.69
2022-10-26T13:48:34.532Z,101406.00
2022-10-26T13:53:44.071Z,101398.69
2022-10-26T13:58:51.361Z,101402.28
2022-10-26T14:03:53.887Z,101398.03
2022-10-26T14:09:01.891Z,101405.56
2022-10-26T14:14:05.872Z,101413.09
2022-10-26T14:19:14.141Z,101407.34
2022-10-26T14:24:35.748Z,101409.34
2022-10-26T14:29:58.569Z,101430.28
2022-10-26T14:35:07.037Z,101443.63
2022-10-26T14:40:17.881Z,101444.31
2022-10-26T14:45:36.289Z,101438.25
2022-10-26T14:50:59.478Z,101431.59
2022-10-26T14:56:05.466Z,101449.16
2022-10-26T15:01:32.105Z,101455.38
2022-10-26T15:06:42.537Z,101457.03
2022-10-26T15:11:46.745Z,101462.13
2022-10-26T15:16:53.647Z,101466.34
2022-10-26T15:21:56.374Z,101466.94
2022-10-26T15:27:02.400Z,101468.75
2022-10-26T15:37:13.832Z,101489.34
2022-10-26T15:42:17.824Z,101490.19
2022-10-26T15:47:21.346Z,101503.13
2022-10-26T15:52:23.875Z,101518.06
2022-10-26T15:57:28.345Z,101514.22
2022-10-26T16:02:30.882Z,101516.44
2022-10-26T16:07:33.798Z,101527.53
2022-10-26T16:12:37.675Z,101540.91
2022-10-26T16:17:40.409Z,101544.28
2022-10-26T16:22:48.066Z,101557.31
2022-10-26T16:27:54.596Z,101565.31
2022-10-26T16:32:57.170Z,101577.91
2022-10-26T16:37:59.762Z,101584.91
2022-10-26T16:43:03.692Z,101599.53
2022-10-26T16:48:13.704Z,101612.25
2022-10-26T16:53:16.252Z,101613.88
2022-10-26T16:58:20.349Z,101618.03
2022-10-26T17:03:22.898Z,101633.47
2022-10-26T17:08:26.557Z,101643.84
2022-10-26T17:13:30.440Z,101645.81
2022-10-26T17:18:33.446Z,101664.03
2022-10-26T17:23:36.081Z,101661.72
2022-10-26T17:28:41.204Z,101665.75
2022-10-26T17:33:45.985Z,101593.28
2022-10-26T17:38:50.412Z,101694.56
2022-10-26T17:43:54.845Z,101710.41
2022-10-26T17:48:59.111Z,101712.38
2022-10-26T17:54:01.713Z,101714.91
2022-10-26T17:59:10.120Z,101709.66
2022-10-26T18:04:15.391Z,101727.19
2022-10-26T18:09:25.021Z,101731.75
2022-10-26T18:14:31.629Z,101748.16
2022-10-26T18:19:37.085Z,101746.91
2022-10-26T18:24:42.481Z,101741.78
2022-10-26T18:29:48.183Z,101754.66
2022-10-26T18:34:52.216Z,101762.19
2022-10-26T18:39:55.497Z,101767.97
2022-10-26T18:45:05.229Z,101770.88
2022-10-26T18:50:14.847Z,101779.88
2022-10-26T18:55:17.657Z,101775.34
2022-10-26T19:00:23.641Z,101778.09
2022-10-26T19:05:29.078Z,101787.31
2022-10-26T19:10:32.037Z,101787.53
2022-10-26T19:15:35.995Z,101791.28
2022-10-26T19:20:38.790Z,101793.09
2022-10-26T19:25:41.585Z,101801.75
2022-10-26T19:30:45.488Z,101803.91
2022-10-26T19:35:48.043Z,101812.66
2022-10-26T19:40:57.700Z,101824.13
2022-10-26T19:46:08.928Z,101826.59
2022-10-26T19:51:11.495Z,101821.31
2022-10-26T19:56:14.988Z,101832.63
2022-10-26T20:01:19.408Z,101812.13
2022-10-26T20:06:22.061Z,101831.66
2022-10-26T20:11:26.939Z,101837.50
2022-10-26T20:16:31.840Z,101832.63
2022-10-26T20:21:35.175Z,101830.78
2022-10-26T20:26:37.727Z,101838.72
2022-10-26T20:31:41.594Z,101839.34
2022-10-26T20:36:44.341Z,101829.97
2022-10-26T20:41:47.321Z,101847.91
2022-10-26T20:46:52.159Z,101851.66
2022-10-26T20:52:20.193Z,101855.84
2022-10-26T20:57:30.731Z,101867.19
2022-10-26T21:02:34.597Z,101838.34
2022-10-26T21:07:37.239Z,101868.94
2022-10-26T21:12:40.164Z,101882.59
2022-10-26T21:17:44.594Z,101883.78
2022-10-26T21:22:47.385Z,101890.06
2022-10-26T21:27:50.450Z,101895.31
2022-10-26T21:32:54.996Z,101896.28
2022-10-26T21:37:57.717Z,101900.75
2022-10-26T21:43:00.229Z,101899.94
2022-10-26T21:48:04.276Z,101910.78
2022-10-26T21:53:07.183Z,101910.34
2022-10-26T21:58:10.546Z,101913.91
2022-10-26T22:03:14.423Z,101919.66
2022-10-26T22:08:17.149Z,101915.38
2022-10-26T22:13:20.126Z,101917.31
2022-10-26T22:18:23.984Z,101911.00
2022-10-26T22:23:26.591Z,101924.25
2022-10-26T22:28:32.042Z,101907.50
2022-10-26T22:33:36.971Z,101902.66
2022-10-26T22:38:40.283Z,101861.13
2022-10-26T22:43:42.983Z,101911.00
2022-10-26T22:48:46.863Z,101908.44
2022-10-26T22:53:52.560Z,101904.72
2022-10-26T22:58:55.566Z,101909.94
2022-10-26T23:04:00.056Z,101911.03
2022-10-26T23:09:02.614Z,101915.25
2022-10-26T23:14:05.856Z,101915.28
2022-10-26T23:19:10.640Z,101917.00
2022-10-26T23:24:13.154Z,101933.75
2022-10-26T23:29:15.640Z,101924.34
2022-10-26T23:34:19.515Z,101940.25
2022-10-26T23:39:22.033Z,101947.50
2022-10-26T23:44:24.555Z,101941.50
2022-10-26T23:49:28.407Z,101939.00
2022-10-26T23:54:30.901Z,101948.75
2022-10-26T23:59:33.464Z,101935.69
